6NC7 weather

Circle P Farm Airport
Newport, North Carolina, United States

Public forecast

Using degrees Fahrenheit for public forecast. Weather courtesy of forecast.io.

Closest aviation weather report (METAR) to Circle P Farm Airport

Closest report is Bogue Field Mcalf Airport, 7.1 nm (13.2 km) WSW. Retrieved 2020/01/28 21:57 UTC (22 minutes ago):

KNJM 282157Z AUTO 36005KT CLR 11/M01 A2996 RMK AO2 SLP150 T01111011 TSNO

Closest aviation forecast (TAF) to Circle P Farm Airport

Forecast is more than 12 hours old.

Closest forecast is Bogue Field Mcalf Airport, 7.1 nm (13.2 km) WSW. Retrieved 2013/08/23 15:11 UTC (6 years ago):

TAF KNJM 231500Z 2315/2415 22005KT 9999 FEW180 SCT220 QNH2997INS FM231900 26007KT 9999 VCTS SCT020 BKN040CB BKN080 BKN180 QNH2994INS TEMPO 2321/2401 22010G25KT 3200 TSRA BKN020 BKN030CB FM240200 VRB05KT 9999 SCT030 BKN050 BKN120 QNH3002INS TN31/2318Z TX22/2410Z